Flight Track Log - Related Links

Times and Time Zones

All times are in EDT time to prevent confusion due to time zone crossing. See the FDX1347 flight status page for this flight to view local times or setup timezone preferences in your user account.

Time Position Orientation Groundspeed Altitude Reporting Facility
EDT Latitude Longitude Course Direction KTS MPH feet Rate Location/Type
Mon 09:52:58 PM 42.7236 -73.8081 187° South 155 178 1,600  Level Boston Center
Mon 09:53:16 PM 42.7089 -73.8106 187° South 162 186 2,100 2,139 Climbing Boston Center
Mon 09:54:53 PM 42.6417 -73.8683 212° Southwest 231 266 5,700 2,544 Climbing Boston Center
Mon 09:55:54 PM 42.6672 -73.9647 290° West 221 254 8,800 2,380 Climbing Boston Center
Mon 09:56:54 PM 42.6431 -74.0686 252° West 255 293 10,500 2,017 Climbing Boston Center
Mon 09:57:53 PM 42.5892 -74.1828 237° Southwest 322 371 12,800 2,047 Climbing Boston Center
Mon 10:04:02 PM 42.2180 -74.9840 237° Southwest 435 501 25,100 1,966 Climbing FlightAware ADS-B
Mon 10:04:42 PM 42.1690 -75.0900 238° Southwest 448 516 26,200 1,694 Climbing FlightAware ADS-B
Mon 10:05:27 PM 42.1190 -75.1970 238° Southwest 456 525 27,500 1,560 Climbing FlightAware ADS-B
Mon 10:06:22 PM 42.0570 -75.3320 238° Southwest 467 537 28,800 1,200 Climbing FlightAware ADS-B
Mon 10:07:12 PM 42.0060 -75.4510 240° Southwest 468 539 29,600 1,642 Climbing FlightAware ADS-B
Mon 10:07:57 PM 41.9600 -75.5650 242° Southwest 474 545 31,400 1,950 Climbing FlightAware ADS-B
Mon 10:09:52 PM 41.8400 -75.8550 241° Southwest 472 543 34,800 1,819 Climbing FlightAware ADS-B
Mon 10:10:32 PM 41.7960 -75.9600 241° Southwest 462 532 36,100 2,036 Climbing FlightAware ADS-B
Mon 10:10:48 PM 41.7735 -76.0145 241° Southwest 458 527 36,700 1,875 Climbing FlightAware ADS-B
Mon 10:11:20 PM 41.7404 -76.0929 241° Southwest 450 518 37,600 1,200 Climbing FlightAware ADS-B
Mon 10:11:53 PM 41.7073 -76.1703 240° Southwest 447 514 38,000 375 Climbing FlightAware ADS-B
Mon 10:12:24 PM 41.6760 -76.2445 241° Southwest 443 510 38,000  Level FlightAware ADS-B
Mon 10:13:00 PM 41.6396 -76.3303 240° Southwest 443 510 38,000  Level FlightAware ADS-B
Mon 10:13:31 PM 41.6078 -76.4068 241° Southwest 446 513 38,000  Level FlightAware ADS-B
Mon 10:14:01 PM 41.5772 -76.4788 240° Southwest 449 517 38,000  Level FlightAware ADS-B
Mon 10:14:32 PM 41.5450 -76.5535 240° Southwest 450 518 38,000  Level FlightAware ADS-B
Mon 10:15:03 PM 41.5137 -76.6282 241° Southwest 451 519 38,000  Level FlightAware ADS-B
Mon 10:15:36 PM 41.4798 -76.7056 240° Southwest 451 519 38,000  Level FlightAware ADS-B
Mon 10:16:09 PM 41.4456 -76.7851 240° Southwest 451 519 38,000  Level FlightAware ADS-B
Mon 10:16:39 PM 41.4137 -76.8598 240° Southwest 450 518 38,000  Level FlightAware ADS-B
Mon 10:17:12 PM 41.3802 -76.9365 240° Southwest 450 518 38,000  Level FlightAware ADS-B
Mon 10:17:42 PM 41.3489 -77.0109 241° Southwest 450 518 38,000  Level FlightAware ADS-B
Mon 10:18:13 PM 41.3165 -77.0851 240° Southwest 449 517 38,000  Level FlightAware ADS-B
Mon 10:18:44 PM 41.2846 -77.1567 239° Southwest 449 517 38,000  Level FlightAware ADS-B
Mon 10:19:17 PM 41.2502 -77.2355 240° Southwest 449 517 38,000  Level FlightAware ADS-B
Mon 10:19:55 PM 41.2106 -77.3262 240° Southwest 450 518 38,000  Level FlightAware ADS-B
Mon 10:20:30 PM 41.1742 -77.4097 240° Southwest 450 518 38,000  Level FlightAware ADS-B
Mon 10:21:08 PM 41.1341 -77.5006 240° Southwest 453 521 38,000  Level FlightAware ADS-B
Mon 10:21:42 PM 41.0975 -77.5845 240° Southwest 454 522 38,000  Level FlightAware ADS-B
Mon 10:22:22 PM 41.0548 -77.6802 239° Southwest 454 522 38,000  Level FlightAware ADS-B
Mon 10:23:12 PM 41.0100 -77.7810 240° Southwest 456 525 38,000  Level FlightAware ADS-B
Mon 10:23:33 PM 40.9791 -77.8511 240° Southwest 457 526 38,000  Level FlightAware ADS-B
Mon 10:24:07 PM 40.9500 -77.9170 240° Southwest 457 526 38,000  Level FlightAware ADS-B
Mon 10:24:19 PM 40.9300 -77.9619 239° Southwest 458 527 38,000  Level FlightAware ADS-B
Mon 10:25:32 PM 40.8530 -78.1180 237° Southwest 455 524 38,000  Level FlightAware ADS-B
Mon 10:26:12 PM 40.8060 -78.2080 235° Southwest 455 524 38,000  Level FlightAware ADS-B
Mon 10:26:52 PM 40.7580 -78.3050 237° Southwest 455 524 38,000  Level FlightAware ADS-B
Mon 10:27:37 PM 40.7050 -78.4090 236° Southwest 456 525 38,000  Level FlightAware ADS-B
Mon 10:28:17 PM 40.6590 -78.4990 236° Southwest 454 522 38,000  Level FlightAware ADS-B
Mon 10:29:02 PM 40.6110 -78.5930 236° Southwest 451 519 38,000  Level FlightAware ADS-B
Mon 10:29:42 PM 40.5630 -78.6880 236° Southwest 449 517 38,000  Level FlightAware ADS-B
Mon 10:30:22 PM 40.5090 -78.7920 236° Southwest 447 514 38,000  Level FlightAware ADS-B
Mon 10:31:07 PM 40.4580 -78.8910 236° Southwest 446 513 38,000  Level FlightAware ADS-B
Mon 10:31:47 PM 40.4110 -78.9800 235° Southwest 444 511 38,000  Level FlightAware ADS-B
Mon 10:32:32 PM 40.3580 -79.0820 236° Southwest 442 509 38,000  Level FlightAware ADS-B
Mon 10:33:12 PM 40.3120 -79.1710 236° Southwest 440 506 38,000  Level FlightAware ADS-B
Mon 10:33:52 PM 40.2670 -79.2590 236° Southwest 441 507 38,000  Level FlightAware ADS-B
Mon 10:34:37 PM 40.2150 -79.3580 236° Southwest 442 509 38,000  Level FlightAware ADS-B
Mon 10:35:17 PM 40.1690 -79.4460 236° Southwest 442 509 38,000  Level FlightAware ADS-B
Mon 10:35:57 PM 40.1230 -79.5320 235° Southwest 442 509 38,000  Level FlightAware ADS-B
Mon 10:36:42 PM 40.0710 -79.6310 236° Southwest 442 509 38,000  Level FlightAware ADS-B
Mon 10:37:22 PM 40.0230 -79.7210 235° Southwest 441 507 38,000  Level FlightAware ADS-B
Mon 10:38:07 PM 39.9710 -79.8190 235° Southwest 440 506 38,000  Level FlightAware ADS-B
Mon 10:38:47 PM 39.9270 -79.9070 237° Southwest 439 505 38,000  Level FlightAware ADS-B
Mon 10:39:27 PM 39.8840 -79.9940 237° Southwest 439 505 38,000  Level FlightAware ADS-B
Mon 10:40:12 PM 39.8320 -80.0960 236° Southwest 440 506 38,000  Level FlightAware ADS-B
Mon 10:40:52 PM 39.7900 -80.1780 236° Southwest 440 506 38,000  Level FlightAware ADS-B
Mon 10:41:32 PM 39.7470 -80.2640 237° Southwest 441 507 38,000  Level FlightAware ADS-B
Mon 10:42:17 PM 39.6930 -80.3700 237° Southwest 441 507 38,000  Level FlightAware ADS-B
Mon 10:42:57 PM 39.6470 -80.4600 236° Southwest 441 507 38,000  Level FlightAware ADS-B
Mon 10:43:42 PM 39.5970 -80.5570 236° Southwest 441 507 38,000  Level FlightAware ADS-B
Mon 10:44:22 PM 39.5520 -80.6430 236° Southwest 440 506 38,000  Level FlightAware ADS-B
Mon 10:45:02 PM 39.5070 -80.7310 236° Southwest 441 507 38,000  Level FlightAware ADS-B
Mon 10:45:42 PM 39.4600 -80.8230 237° Southwest 442 509 38,000  Level FlightAware ADS-B
Mon 10:46:32 PM 39.4030 -80.9330 236° Southwest 442 509 38,000  Level FlightAware ADS-B
Mon 10:47:12 PM 39.3560 -81.0230 236° Southwest 443 510 38,000  Level FlightAware ADS-B
Mon 10:47:52 PM 39.3130 -81.1040 236° Southwest 443 510 38,000  Level FlightAware ADS-B
Mon 10:48:37 PM 39.2630 -81.2010 236° Southwest 444 511 38,000  Level FlightAware ADS-B
Mon 10:49:17 PM 39.2130 -81.2960 236° Southwest 446 513 38,000  Level FlightAware ADS-B
Mon 10:49:57 PM 39.1710 -81.3770 236° Southwest 446 513 38,000  Level FlightAware ADS-B
Mon 10:50:42 PM 39.1140 -81.4850 236° Southwest 447 514 38,000  Level FlightAware ADS-B
Mon 10:51:27 PM 39.0630 -81.5820 236° Southwest 449 517 38,000  Level FlightAware ADS-B
Mon 10:52:07 PM 39.0170 -81.6680 235° Southwest 451 519 38,000  Level FlightAware ADS-B
Mon 10:52:47 PM 38.9690 -81.7590 236° Southwest 451 519 38,000  Level FlightAware ADS-B
Mon 10:53:32 PM 38.9170 -81.8570 236° Southwest 453 521 38,000  Level FlightAware ADS-B
Mon 10:54:12 PM 38.8680 -81.9450 234° Southwest 454 522 38,000  Level FlightAware ADS-B
Mon 10:54:57 PM 38.8130 -82.0490 236° Southwest 454 522 38,000  Level FlightAware ADS-B
Mon 10:55:37 PM 38.7670 -82.1360 236° Southwest 455 524 38,000  Level FlightAware ADS-B
Mon 10:56:17 PM 38.7180 -82.2270 235° Southwest 455 524 38,000  Level FlightAware ADS-B
Mon 10:57:02 PM 38.6660 -82.3220 235° Southwest 454 522 38,000  Level FlightAware ADS-B
Mon 10:57:37 PM 38.6220 -82.4010 235° Southwest 454 522 38,000  Level FlightAware ADS-B
Mon 10:58:22 PM 38.5700 -82.4980 236° Southwest 452 520 38,000  Level FlightAware ADS-B
Mon 10:59:07 PM 38.5180 -82.5950 236° Southwest 451 519 38,000  Level FlightAware ADS-B
Mon 10:59:47 PM 38.4680 -82.6860 235° Southwest 448 516 38,000  Level FlightAware ADS-B
Mon 11:00:32 PM 38.4170 -82.7790 235° Southwest 445 512 38,000  Level FlightAware ADS-B
Mon 11:01:12 PM 38.3680 -82.8660 234° Southwest 442 509 38,000  Level FlightAware ADS-B
Mon 11:01:57 PM 38.3140 -82.9640 235° Southwest 439 505 38,000  Level FlightAware ADS-B
Mon 11:02:37 PM 38.2670 -83.0510 235° Southwest 437 503 38,000  Level FlightAware ADS-B
Mon 11:03:17 PM 38.2200 -83.1330 234° Southwest 437 503 38,000  Level FlightAware ADS-B
Mon 11:03:57 PM 38.1730 -83.2190 235° Southwest 438 504 38,000  Level FlightAware ADS-B
Mon 11:04:42 PM 38.1220 -83.3090 234° Southwest 437 503 38,000  Level FlightAware ADS-B
Mon 11:05:27 PM 38.0690 -83.4050 235° Southwest 437 503 38,000  Level FlightAware ADS-B
Mon 11:06:02 PM 38.0320 -83.4690 234° Southwest 437 503 38,000  Level FlightAware ADS-B
Mon 11:06:42 PM 37.9920 -83.5390 234° Southwest 437 503 38,000  Level FlightAware ADS-B
Mon 11:07:32 PM 37.9420 -83.6270 234° Southwest 437 503 38,000  Level FlightAware ADS-B
Mon 11:08:12 PM 37.9010 -83.6980 234° Southwest 437 503 38,000  Level FlightAware ADS-B
Mon 11:08:52 PM 37.8020 -83.8090 222° Southwest 446 513 38,000  Level FlightAware ADS-B
Mon 11:09:32 PM 37.7480 -83.8800 226° Southwest 445 512 38,000  Level FlightAware ADS-B
Mon 11:10:12 PM 37.6990 -83.9440 226° Southwest 445 512 38,000  Level FlightAware ADS-B
Mon 11:11:02 PM 37.6200 -84.0610 230° Southwest 445 512 38,000  Level FlightAware ADS-B
Mon 11:11:42 PM 37.5730 -84.1460 235° Southwest 444 511 38,000  Level FlightAware ADS-B
Mon 11:12:22 PM 37.5290 -84.2250 235° Southwest 445 512 38,000  Level FlightAware ADS-B
Mon 11:13:02 PM 37.4890 -84.2970 235° Southwest 445 512 38,000  Level FlightAware ADS-B
Mon 11:13:42 PM 37.4480 -84.3700 235° Southwest 445 512 38,000  Level FlightAware ADS-B
Mon 11:14:32 PM 37.3980 -84.4600 235° Southwest 445 512 38,000  Level FlightAware ADS-B
Mon 11:15:12 PM 37.3580 -84.5320 235° Southwest 445 512 38,000  Level FlightAware ADS-B
Mon 11:15:31 PM 37.3028 -84.6379 237° Southwest 443 510 38,000  Level FlightAware ADS-B
Mon 11:16:14 PM 37.2524 -84.7287 235° Southwest 443 510 38,000  Level FlightAware ADS-B
Mon 11:16:50 PM 37.2109 -84.8046 236° Southwest 443 510 38,000  Level FlightAware ADS-B
Mon 11:17:26 PM 37.1682 -84.8805 235° Southwest 443 510 38,000  Level FlightAware ADS-B
Mon 11:17:57 PM 37.1323 -84.9456 235° Southwest 443 510 38,000  Level FlightAware ADS-B
Mon 11:18:27 PM 37.0971 -85.0087 235° Southwest 443 510 38,000  Level FlightAware ADS-B
Mon 11:18:58 PM 37.0601 -85.0740 235° Southwest 443 510 38,000  Level FlightAware ADS-B
Mon 11:19:40 PM 37.0113 -85.1618 235° Southwest 442 509 38,000  Level FlightAware ADS-B
Mon 11:20:21 PM 36.9630 -85.2473 235° Southwest 441 507 38,000  Level FlightAware ADS-B
Mon 11:21:04 PM 36.9125 -85.3364 235° Southwest 439 505 38,000  Level FlightAware ADS-B
Mon 11:21:36 PM 36.8755 -85.4027 235° Southwest 439 505 38,000  Level FlightAware ADS-B
Mon 11:22:07 PM 36.8420 -85.4610 234° Southwest 437 503 38,000  Level FlightAware ADS-B
Mon 11:22:19 PM 36.8250 -85.4917 235° Southwest 438 504 38,000  Level FlightAware ADS-B
Mon 11:22:52 PM 36.7950 -85.5440 234° Southwest 438 504 38,000  Level FlightAware ADS-B
Mon 11:23:08 PM 36.7682 -85.5905 234° Southwest 438 504 38,000  Level FlightAware ADS-B
Mon 11:23:38 PM 36.7324 -85.6544 235° Southwest 438 504 38,000  Level FlightAware ADS-B
Mon 11:24:08 PM 36.6971 -85.7161 235° Southwest 438 504 38,000  Level FlightAware ADS-B
Mon 11:24:40 PM 36.6604 -85.7800 234° Southwest 438 504 38,000  Level FlightAware ADS-B
Mon 11:25:11 PM 36.6235 -85.8458 235° Southwest 438 504 38,000  Level FlightAware ADS-B
Mon 11:25:42 PM 36.5890 -85.9050 234° Southwest 438 504 38,000  Level FlightAware ADS-B
Mon 11:26:27 PM 36.5350 -85.9980 234° Southwest 438 504 38,000  Level FlightAware ADS-B
Mon 11:27:07 PM 36.4880 -86.0810 235° Southwest 437 503 38,000  Level FlightAware ADS-B
Mon 11:27:47 PM 36.4400 -86.1630 234° Southwest 437 503 38,000  Level FlightAware ADS-B
Mon 11:28:32 PM 36.3900 -86.2510 235° Southwest 436 502 38,000  Level FlightAware ADS-B
Mon 11:29:07 PM 36.3444 -86.3281 234° Southwest 438 504 38,000  Level FlightAware ADS-B
Mon 11:29:52 PM 36.2950 -86.4140 235° Southwest 438 504 38,000  Level FlightAware ADS-B
Mon 11:30:08 PM 36.2723 -86.4526 234° Southwest 438 504 38,000  Level FlightAware ADS-B
Mon 11:31:14 PM 36.1940 -86.5872 234° Southwest 440 506 38,000  Level FlightAware ADS-B
Mon 11:32:02 PM 36.1400 -86.6850 236° Southwest 438 504 38,000  Level FlightAware ADS-B
Mon 11:32:42 PM 36.1080 -86.7740 246° West 436 502 38,000  Level FlightAware ADS-B
Mon 11:33:27 PM 36.0760 -86.8770 249° West 436 502 38,000  Level FlightAware ADS-B
Mon 11:34:07 PM 36.0441 -86.9767 248° West 437 503 38,000  Level FlightAware ADS-B
Mon 11:34:37 PM 36.0217 -87.0462 248° West 437 503 38,000  Level FlightAware ADS-B
Mon 11:35:07 PM 35.9993 -87.1157 248° West 437 503 38,000  Level FlightAware ADS-B
Mon 11:35:54 PM 35.9642 -87.2249 248° West 439 505 38,000  Level FlightAware ADS-B
Mon 11:36:29 PM 35.9382 -87.3064 249° West 440 506 38,000 -641 Level FlightAware ADS-B
Mon 11:37:37 PM 35.8880 -87.4610 248° West 443 510 36,900 -1,056 Descending FlightAware ADS-B
Mon 11:38:17 PM 35.8590 -87.5520 249° West 445 512 36,100 -1,271 Descending FlightAware ADS-B
Mon 11:39:02 PM 35.8220 -87.6630 248° West 447 514 35,100 -1,271 Descending FlightAware ADS-B
Mon 11:39:42 PM 35.7920 -87.7550 248° West 448 516 34,300 -933 Descending FlightAware ADS-B
Mon 11:40:32 PM 35.7560 -87.8660 248° West 441 507 33,700 -1,326 Descending FlightAware ADS-B
Mon 11:41:17 PM 35.7190 -87.9750 247° West 444 511 32,200 -1,000 Descending FlightAware ADS-B
Mon 11:42:02 PM 35.6870 -88.0680 247° West 444 511 32,200  Level FlightAware ADS-B
Mon 11:42:42 PM 35.6600 -88.1470 247° West 444 511 32,200  Level FlightAware ADS-B
Mon 11:43:22 PM 35.6330 -88.2270 247° West 444 511 32,200  Level FlightAware ADS-B
Mon 11:44:02 PM 35.6060 -88.3060 247° West 444 511 32,200  Level FlightAware ADS-B
Mon 11:44:42 PM 35.5780 -88.3850 246° West 444 511 32,200  Level FlightAware ADS-B
Mon 11:45:32 PM 35.5440 -88.4830 247° West 444 511 32,200  Level FlightAware ADS-B
Mon 11:46:12 PM 35.5170 -88.5620 247° West 444 511 32,200  Level FlightAware ADS-B
Mon 11:46:52 PM 35.4900 -88.6410 247° West 444 511 32,200  Level FlightAware ADS-B
Mon 11:47:32 PM 35.4620 -88.7200 247° West 444 511 32,200  Level FlightAware ADS-B
Mon 11:48:12 PM 35.4350 -88.7990 247° West 444 511 32,200  Level FlightAware ADS-B
Mon 11:49:02 PM 35.4010 -88.8980 247° West 444 511 32,200  Level FlightAware ADS-B
Mon 11:49:42 PM 35.3740 -88.9770 247° West 444 511 32,200  Level FlightAware ADS-B
Mon 11:50:22 PM 35.3460 -89.0560 247° West 444 511 32,200  Level FlightAware ADS-B
Mon 11:51:02 PM 35.3190 -89.1340 247° West 444 511 32,200 -17,838 Level FlightAware ADS-B
Mon 11:51:36 PM 35.0833 -89.0167 247° West 288 331 10,200 -24,444 Descending KMEM
Mon 11:51:56 PM 35.0647 -89.0278 206° Southwest 305 351 10,200 -675 Level Memphis Center
Mon 11:52:56 PM 35.0342 -89.0992 242° Southwest 263 303 9,300 -1,050 Descending Memphis Center
Mon 11:53:56 PM 35.0372 -89.1878 272° West 243 280 8,100 -1,200 Descending Memphis Center
Mon 11:54:56 PM 35.0400 -89.2692 272° West 249 287 6,900 -1,050 Descending Memphis Center
Mon 11:55:56 PM 35.0386 -89.3553 269° West 249 287 6,000 -450 Descending Memphis Center
Mon 11:56:56 PM 35.0414 -89.4414 272° West 254 292 6,000 -150 Level Memphis Center
Mon 11:57:56 PM 35.0464 -89.5328 274° West 254 292 5,700 -800 Descending Memphis Center
Mon 11:58:56 PM 35.0489 -89.6189 272° West 254 292 4,400 -850 Descending Memphis Center
Mon 11:59:56 PM 35.0514 -89.6950 272° West 249 287 4,000 -400 Descending Memphis Center
Tue 12:00:56 AM 35.0539 -89.7558 273° West 206 237 3,600 -650 Descending Memphis Center
Tue 12:01:56 AM 35.0542 -89.8042 270° West 164 189 2,700 -800 Descending Memphis Center
Tue 12:02:56 AM 35.0564 -89.8572 273° West 154 177 2,000 -780 Descending Memphis Center
Tue 12:03:36 AM 35.0500 -89.8833 253° West 135 155 1,400 -780 Descending KMEM
Tue 12:04:36 AM 35.0500 -89.9167 270° West 130 150 700 -700 Descending KMEM
Tue 12:06:00 AM 35.0333 -89.9667 270° West  Level FlightAware Approximate
Tue 12:13:00 AM 35.0424 -89.9767 270° West  Level Estimated
Tue 12:14:00 AM 35.0424 -89.9767 270° West  Level Estimated
Tue 12:15:00 AM 35.0424 -89.9767 270° West  Level Estimated
Tue 12:16:00 AM 35.0424 -89.9767 270° West  Level Estimated
Tue 12:17:00 AM 35.0424 -89.9767 270° West  Level Estimated
Tue 12:18:00 AM 35.0424 -89.9767 270° West  Level Estimated
Tue 12:19:00 AM 35.0424 -89.9767 270° West  Level Estimated
Tue 12:20:00 AM 35.0424 -89.9767 270° West  Level Estimated

Login

Don't have an account? Register now (free) for customized features, flight alerts, and more!